Pagrindinis puslapis
METAR-TAF:

METAR-TAF

Oro uostai :

Nuakšotas, Mauritanija

platuma: 18-18-36N, ilguma: 015-58-11W, Aukštis: 3 m

Dabartinis oras

Ataskaita buvo paskelbta 56 minutes, ne 03:30 UTC
Vėjas 10 kt iš Šiaurės/Šiaurės Vakarų
Temperatūra 23°C
Drėgmė 25%
Slėgis 1013 hPa
Matomumas 10 km arba daugiau
nėra debesų žemiau 1500 m ir nėra kamuolinių lietaus debesų

METAR: GQNO 170330Z 34010KT CAVOK 23/02 Q1013 NOSIG

Laikas: 04:26 (04:26 UTC)

Prognozė

Ataskaita buvo paskelbta 5 valandos ir 26 minutes, ne 23:00 UTC
Prognozė galioja nuo 17 metu 00 UTC su 18 metu 06 UTC
Vėjas 8 kt iš Šiaurės/Šiaurės Rytų
Matomumas: 8000 m
Tapsmas
nuo 17 metu 07 UTC su 17 metu 10 UTC
Vėjas 15 kt iš Rytų
Tapsmas
nuo 17 metu 17 UTC su 17 metu 20 UTC
Vėjas 10 kt iš Šiaurės/Šiaurės Rytų

TAF: GQNO 162300Z 1700/1806 02008KT 8000 NSC BECMG 1707/1710 09015KT BECMG 1717/1720 03010KT

Orai ataskaitas ir orų prognozės (METAR, TAF).

turimą stotys yra geltonos ir raudonos taškus žemėlapyje.

Perkelti pele per norėdami pamatyti stoties vardą.

Tada spustelėkite, norėdami matyti oro stebėjimo ir prognozės.

Norėdami pakeisti žemėlapį: spustelėkite ant žalios mygtukų su juodo kryžiaus žemyn,; žalią mygtuką su brūkšneliu, jei norite nutolinti; arba žalių rodyklių gretimoms žemėlapius.


METAR-TAF: